JAL566 RJCM-RJTT
Flight info
| Callsign | JAL566 |
|---|---|
| Flight time | 1h 53m |
| Altitude | 32000 |
| Route | MENIB Y112 OMGOL Y111 MQE Y106 RUBIS Y10 GODIN |
| Aircraft | B738/M-SDE2E3FGHIRWXY/LB1 |
Departure
| Time | 2026-05-04 12:13 |
|---|---|
| Airport | Memanbetsu Airport (RJCM) |
Arrival
| Time | 2026-05-04 14:06 |
|---|---|
| Airport | Tokyo Haneda International Airport (RJTT) |
| Time | Latitude | Longitude | Altitude | Speed | Heading |
|---|---|---|---|---|---|
| 2026-05-04 12:03 | 43.88154 | 144.15973 | 118 ft | 0 kts | 265° |
| 2026-05-04 12:04 | 43.88154 | 144.15974 | 118 ft | 1 kts | 265° |
| 2026-05-04 12:04 | 43.88155 | 144.15994 | 113 ft | 3 kts | 265° |
| 2026-05-04 12:04 | 43.88157 | 144.16022 | 117 ft | 3 kts | 265° |
| 2026-05-04 12:04 | 43.88159 | 144.16050 | 115 ft | 3 kts | 260° |
| 2026-05-04 12:05 | 43.88164 | 144.16077 | 116 ft | 3 kts | 251° |
| 2026-05-04 12:05 | 43.88171 | 144.16103 | 116 ft | 3 kts | 241° |
| 2026-05-04 12:05 | 43.88182 | 144.16126 | 114 ft | 3 kts | 230° |
| 2026-05-04 12:05 | 43.88194 | 144.16144 | 116 ft | 2 kts | 221° |
| 2026-05-04 12:06 | 43.88198 | 144.16149 | 115 ft | 0 kts | 221° |
| 2026-05-04 12:08 | 43.88189 | 144.16142 | 112 ft | 4 kts | 197° |
| 2026-05-04 12:09 | 43.88135 | 144.16156 | 115 ft | 11 kts | 168° |
| 2026-05-04 12:09 | 43.88038 | 144.16171 | 115 ft | 16 kts | 174° |
| 2026-05-04 12:09 | 43.87910 | 144.16188 | 114 ft | 20 kts | 174° |
| 2026-05-04 12:09 | 43.87758 | 144.16209 | 117 ft | 24 kts | 174° |
| 2026-05-04 12:10 | 43.87594 | 144.16229 | 117 ft | 23 kts | 174° |
| 2026-05-04 12:10 | 43.87438 | 144.16250 | 123 ft | 22 kts | 175° |
| 2026-05-04 12:10 | 43.87286 | 144.16270 | 127 ft | 22 kts | 174° |
| 2026-05-04 12:10 | 43.87147 | 144.16289 | 132 ft | 18 kts | 174° |
| 2026-05-04 12:11 | 43.87027 | 144.16305 | 135 ft | 17 kts | 174° |
| 2026-05-04 12:11 | 43.86955 | 144.16339 | 137 ft | 10 kts | 130° |
| 2026-05-04 12:11 | 43.86945 | 144.16428 | 139 ft | 10 kts | 85° |
| 2026-05-04 12:11 | 43.86959 | 144.16515 | 141 ft | 9 kts | 51° |
| 2026-05-04 12:12 | 43.87020 | 144.16533 | 140 ft | 9 kts | 355° |
| 2026-05-04 12:12 | 43.87136 | 144.16519 | 136 ft | 42 kts | 355° |
| 2026-05-04 12:12 | 43.87686 | 144.16447 | 121 ft | 114 kts | 355° |
| 2026-05-04 12:12 | 43.88673 | 144.16328 | 237 ft | 161 kts | 354° |
| 2026-05-04 12:13 | 43.89810 | 144.16217 | 1023 ft | 166 kts | 354° |
| 2026-05-04 12:14 | 43.88282 | 144.29360 | 4089 ft | 292 kts | 130° |
| 2026-05-04 12:15 | 43.86609 | 144.30917 | 4820 ft | 290 kts | 161° |
| 2026-05-04 12:15 | 43.84712 | 144.31769 | 5722 ft | 284 kts | 165° |
| 2026-05-04 12:15 | 43.83467 | 144.32301 | 6258 ft | 282 kts | 166° |
| 2026-05-04 12:15 | 43.81597 | 144.33102 | 6987 ft | 282 kts | 167° |
| 2026-05-04 12:16 | 43.79723 | 144.33912 | 7693 ft | 282 kts | 168° |
| 2026-05-04 12:16 | 43.77854 | 144.34724 | 8405 ft | 282 kts | 169° |
| 2026-05-04 12:16 | 43.75982 | 144.35542 | 9125 ft | 282 kts | 169° |
| 2026-05-04 12:16 | 43.74112 | 144.36361 | 9789 ft | 282 kts | 169° |
| 2026-05-04 12:17 | 43.72225 | 144.37186 | 10254 ft | 290 kts | 169° |
| 2026-05-04 12:17 | 43.70234 | 144.38051 | 10398 ft | 309 kts | 169° |
| 2026-05-04 12:17 | 43.68120 | 144.38971 | 10550 ft | 328 kts | 168° |
| 2026-05-04 12:17 | 43.65884 | 144.39949 | 10690 ft | 346 kts | 168° |
| 2026-05-04 12:18 | 43.63537 | 144.40979 | 10807 ft | 363 kts | 168° |
| 2026-05-04 12:18 | 43.61082 | 144.42059 | 10946 ft | 378 kts | 167° |
| 2026-05-04 12:18 | 43.58568 | 144.43168 | 11233 ft | 387 kts | 167° |
| 2026-05-04 12:18 | 43.55992 | 144.44304 | 11737 ft | 390 kts | 167° |
| 2026-05-04 12:19 | 43.53403 | 144.45442 | 12306 ft | 391 kts | 167° |
| 2026-05-04 12:19 | 43.50809 | 144.46576 | 12871 ft | 393 kts | 167° |
| 2026-05-04 12:19 | 43.48166 | 144.47427 | 13388 ft | 388 kts | 181° |
| 2026-05-04 12:19 | 43.45481 | 144.47404 | 13926 ft | 386 kts | 186° |
| 2026-05-04 12:20 | 43.42791 | 144.47339 | 14436 ft | 388 kts | 185° |
| 2026-05-04 12:20 | 43.40076 | 144.47314 | 14938 ft | 391 kts | 184° |
| 2026-05-04 12:20 | 43.37345 | 144.47313 | 15457 ft | 393 kts | 184° |
| 2026-05-04 12:20 | 43.34610 | 144.47320 | 15987 ft | 395 kts | 184° |
| 2026-05-04 12:21 | 43.31855 | 144.47327 | 16516 ft | 396 kts | 185° |
| 2026-05-04 12:21 | 43.29093 | 144.47332 | 17042 ft | 397 kts | 185° |
| 2026-05-04 12:21 | 43.26324 | 144.47335 | 17560 ft | 398 kts | 185° |
| 2026-05-04 12:21 | 43.23549 | 144.47339 | 18039 ft | 399 kts | 185° |
| 2026-05-04 12:22 | 43.20773 | 144.47343 | 18635 ft | 396 kts | 185° |
| 2026-05-04 12:22 | 43.18057 | 144.47348 | 19206 ft | 394 kts | 186° |
| 2026-05-04 12:22 | 43.15316 | 144.47352 | 19722 ft | 394 kts | 186° |
| 2026-05-04 12:22 | 43.12575 | 144.47355 | 20213 ft | 394 kts | 187° |
| 2026-05-04 12:23 | 43.09835 | 144.47358 | 20678 ft | 394 kts | 187° |
| 2026-05-04 12:23 | 43.07097 | 144.47361 | 21122 ft | 394 kts | 187° |
| 2026-05-04 12:23 | 43.04354 | 144.47365 | 21560 ft | 394 kts | 187° |
| 2026-05-04 12:23 | 43.01630 | 144.47271 | 21992 ft | 390 kts | 192° |
| 2026-05-04 12:24 | 42.98970 | 144.46714 | 22410 ft | 384 kts | 198° |
| 2026-05-04 12:24 | 42.96351 | 144.45997 | 22801 ft | 385 kts | 198° |
| 2026-05-04 12:24 | 42.93718 | 144.45297 | 23152 ft | 385 kts | 198° |
| 2026-05-04 12:24 | 42.91086 | 144.44608 | 23435 ft | 385 kts | 198° |
| 2026-05-04 12:25 | 42.88448 | 144.43924 | 23728 ft | 385 kts | 198° |
| 2026-05-04 12:25 | 42.85815 | 144.43245 | 24016 ft | 385 kts | 198° |
| 2026-05-04 12:25 | 42.83181 | 144.42567 | 24293 ft | 385 kts | 198° |
| 2026-05-04 12:25 | 42.80546 | 144.41889 | 24567 ft | 385 kts | 198° |
| 2026-05-04 12:26 | 42.77949 | 144.41221 | 24825 ft | 385 kts | 199° |
| 2026-05-04 12:26 | 42.75315 | 144.40544 | 25078 ft | 385 kts | 199° |
| 2026-05-04 12:26 | 42.72690 | 144.39870 | 25361 ft | 383 kts | 199° |
| 2026-05-04 12:26 | 42.70079 | 144.39201 | 25716 ft | 380 kts | 199° |
| 2026-05-04 12:27 | 42.67498 | 144.38542 | 26113 ft | 376 kts | 200° |
| 2026-05-04 12:27 | 42.64939 | 144.37887 | 26503 ft | 372 kts | 200° |
| 2026-05-04 12:27 | 42.62402 | 144.37236 | 26860 ft | 369 kts | 200° |
| 2026-05-04 12:27 | 42.59881 | 144.36590 | 27211 ft | 367 kts | 200° |
| 2026-05-04 12:28 | 42.57381 | 144.35950 | 27587 ft | 364 kts | 200° |
| 2026-05-04 12:28 | 42.54906 | 144.35319 | 27975 ft | 360 kts | 201° |
| 2026-05-04 12:28 | 42.52475 | 144.34619 | 28360 ft | 353 kts | 205° |
| 2026-05-04 12:28 | 42.50151 | 144.33670 | 28742 ft | 347 kts | 206° |
| 2026-05-04 12:29 | 42.47856 | 144.32707 | 29128 ft | 344 kts | 206° |
| 2026-05-04 12:29 | 42.45575 | 144.31753 | 29498 ft | 341 kts | 206° |
| 2026-05-04 12:29 | 42.43313 | 144.30810 | 29778 ft | 339 kts | 206° |
| 2026-05-04 12:29 | 42.41057 | 144.29872 | 30005 ft | 339 kts | 206° |
| 2026-05-04 12:30 | 42.38806 | 144.28938 | 30221 ft | 339 kts | 206° |
| 2026-05-04 12:30 | 42.36552 | 144.28004 | 30412 ft | 339 kts | 206° |
| 2026-05-04 12:30 | 42.34295 | 144.27070 | 30552 ft | 340 kts | 206° |
| 2026-05-04 12:30 | 42.32056 | 144.26145 | 30671 ft | 341 kts | 206° |
| 2026-05-04 12:31 | 42.29782 | 144.25207 | 30809 ft | 342 kts | 206° |
| 2026-05-04 12:31 | 42.27511 | 144.24272 | 31013 ft | 341 kts | 207° |
| 2026-05-04 12:31 | 42.25247 | 144.23341 | 31224 ft | 339 kts | 207° |
| 2026-05-04 12:31 | 42.22993 | 144.22413 | 31378 ft | 339 kts | 207° |
| 2026-05-04 12:32 | 42.16215 | 144.19624 | 31396 ft | 338 kts | 207° |
| 2026-05-04 12:33 | 42.11719 | 144.17779 | 31399 ft | 337 kts | 207° |
| 2026-05-04 12:33 | 42.07238 | 144.15941 | 31405 ft | 336 kts | 207° |
| 2026-05-04 12:34 | 42.02767 | 144.14110 | 31412 ft | 336 kts | 207° |
| 2026-05-04 12:34 | 41.98316 | 144.12289 | 31414 ft | 337 kts | 207° |
| 2026-05-04 12:35 | 41.93832 | 144.10458 | 31418 ft | 337 kts | 207° |
| 2026-05-04 12:35 | 41.89338 | 144.08625 | 31422 ft | 338 kts | 207° |
| 2026-05-04 12:36 | 41.84839 | 144.06794 | 31424 ft | 338 kts | 207° |
| 2026-05-04 12:36 | 41.80340 | 144.04966 | 31428 ft | 338 kts | 207° |
| 2026-05-04 12:37 | 41.75833 | 144.03136 | 31436 ft | 338 kts | 207° |
| 2026-05-04 12:37 | 41.71323 | 144.01308 | 31442 ft | 339 kts | 207° |
| 2026-05-04 12:38 | 41.66807 | 143.99481 | 31444 ft | 339 kts | 207° |
| 2026-05-04 12:38 | 41.62320 | 143.97668 | 31449 ft | 339 kts | 207° |
| 2026-05-04 12:39 | 41.57794 | 143.95842 | 31458 ft | 339 kts | 207° |
| 2026-05-04 12:39 | 41.53272 | 143.94019 | 31459 ft | 339 kts | 207° |
| 2026-05-04 12:40 | 41.48751 | 143.92200 | 31464 ft | 339 kts | 207° |
| 2026-05-04 12:40 | 41.44225 | 143.90381 | 31466 ft | 339 kts | 207° |
| 2026-05-04 12:41 | 41.39697 | 143.88565 | 31470 ft | 339 kts | 207° |
| 2026-05-04 12:41 | 41.35174 | 143.86752 | 31473 ft | 340 kts | 207° |
| 2026-05-04 12:42 | 41.30679 | 143.84952 | 31476 ft | 340 kts | 207° |
| 2026-05-04 12:42 | 41.26139 | 143.83136 | 31483 ft | 340 kts | 207° |
| 2026-05-04 12:43 | 41.21607 | 143.81325 | 31485 ft | 340 kts | 207° |
| 2026-05-04 12:43 | 41.17099 | 143.79526 | 31490 ft | 340 kts | 207° |
| 2026-05-04 12:44 | 41.12560 | 143.77718 | 31495 ft | 341 kts | 207° |
| 2026-05-04 12:44 | 41.08014 | 143.75909 | 31500 ft | 341 kts | 207° |
| 2026-05-04 12:45 | 41.03462 | 143.74100 | 31505 ft | 341 kts | 207° |
| 2026-05-04 12:45 | 40.98990 | 143.72334 | 31496 ft | 330 kts | 207° |
| 2026-05-04 12:46 | 40.94643 | 143.70614 | 31502 ft | 321 kts | 207° |
| 2026-05-04 12:46 | 40.90409 | 143.68935 | 31514 ft | 317 kts | 207° |
| 2026-05-04 12:47 | 40.86131 | 143.67233 | 31531 ft | 325 kts | 207° |
| 2026-05-04 12:47 | 40.81775 | 143.65512 | 31526 ft | 332 kts | 207° |
| 2026-05-04 12:48 | 40.77806 | 143.62681 | 31524 ft | 325 kts | 220° |
| 2026-05-04 12:48 | 40.74287 | 143.58926 | 31522 ft | 326 kts | 227° |
| 2026-05-04 12:49 | 40.71569 | 143.54125 | 31544 ft | 329 kts | 234° |
| 2026-05-04 12:49 | 40.68989 | 143.49124 | 31537 ft | 330 kts | 234° |
| 2026-05-04 12:50 | 40.66390 | 143.44119 | 31540 ft | 330 kts | 233° |
| 2026-05-04 12:50 | 40.63785 | 143.39133 | 31557 ft | 330 kts | 233° |
| 2026-05-04 12:51 | 40.61202 | 143.34206 | 31549 ft | 329 kts | 233° |
| 2026-05-04 12:51 | 40.58602 | 143.29259 | 31551 ft | 328 kts | 233° |
| 2026-05-04 12:52 | 40.56011 | 143.24337 | 31557 ft | 327 kts | 233° |
| 2026-05-04 12:52 | 40.53421 | 143.19424 | 31561 ft | 326 kts | 234° |
| 2026-05-04 12:53 | 40.50835 | 143.14525 | 31568 ft | 326 kts | 234° |
| 2026-05-04 12:53 | 40.48250 | 143.09634 | 31572 ft | 326 kts | 234° |
| 2026-05-04 12:54 | 40.45669 | 143.04760 | 31575 ft | 325 kts | 234° |
| 2026-05-04 12:54 | 40.43096 | 142.99905 | 31578 ft | 325 kts | 234° |
| 2026-05-04 12:55 | 40.40510 | 142.95035 | 31581 ft | 325 kts | 234° |
| 2026-05-04 12:55 | 40.37925 | 142.90174 | 31582 ft | 325 kts | 234° |
| 2026-05-04 12:56 | 40.35332 | 142.85305 | 31586 ft | 325 kts | 234° |
| 2026-05-04 12:56 | 40.32740 | 142.80447 | 31586 ft | 325 kts | 234° |
| 2026-05-04 12:57 | 40.30142 | 142.75585 | 31591 ft | 325 kts | 234° |
| 2026-05-04 12:57 | 40.27567 | 142.70772 | 31592 ft | 325 kts | 234° |
| 2026-05-04 12:58 | 40.24969 | 142.65925 | 31599 ft | 325 kts | 234° |
| 2026-05-04 12:58 | 40.22376 | 142.61093 | 31598 ft | 325 kts | 234° |
| 2026-05-04 12:59 | 40.19777 | 142.56257 | 31606 ft | 325 kts | 234° |
| 2026-05-04 12:59 | 40.17177 | 142.51428 | 31605 ft | 324 kts | 234° |
| 2026-05-04 13:00 | 40.14573 | 142.46599 | 31610 ft | 324 kts | 234° |
| 2026-05-04 13:00 | 40.11991 | 142.41817 | 31607 ft | 324 kts | 234° |
| 2026-05-04 13:01 | 40.09375 | 142.36982 | 31654 ft | 323 kts | 234° |
| 2026-05-04 13:01 | 40.06798 | 142.32223 | 31612 ft | 323 kts | 234° |
| 2026-05-04 13:02 | 40.04206 | 142.27446 | 31618 ft | 322 kts | 234° |
| 2026-05-04 13:02 | 40.01608 | 142.22664 | 31610 ft | 322 kts | 234° |
| 2026-05-04 13:03 | 39.99013 | 142.17894 | 31609 ft | 322 kts | 234° |
| 2026-05-04 13:03 | 39.96415 | 142.13125 | 31608 ft | 322 kts | 234° |
| 2026-05-04 13:04 | 39.93818 | 142.08365 | 31595 ft | 322 kts | 234° |
| 2026-05-04 13:04 | 39.91659 | 142.04412 | 31583 ft | 323 kts | 234° |
| 2026-05-04 13:05 | 39.88480 | 141.99014 | 31596 ft | 325 kts | 227° |
| 2026-05-04 13:05 | 39.85062 | 141.95106 | 31584 ft | 329 kts | 223° |
| 2026-05-04 13:06 | 39.81902 | 141.92260 | 31583 ft | 337 kts | 215° |
| 2026-05-04 13:06 | 39.77626 | 141.89596 | 31601 ft | 343 kts | 213° |
| 2026-05-04 13:07 | 39.73280 | 141.86969 | 31600 ft | 346 kts | 213° |
| 2026-05-04 13:07 | 39.68914 | 141.84326 | 31599 ft | 347 kts | 213° |
| 2026-05-04 13:08 | 39.64527 | 141.81664 | 31619 ft | 349 kts | 213° |
| 2026-05-04 13:08 | 39.60123 | 141.78991 | 31609 ft | 349 kts | 213° |
| 2026-05-04 13:09 | 39.55726 | 141.76325 | 31653 ft | 349 kts | 213° |
| 2026-05-04 13:09 | 39.51325 | 141.73657 | 31643 ft | 349 kts | 213° |
| 2026-05-04 13:10 | 39.46946 | 141.71006 | 31646 ft | 349 kts | 213° |
| 2026-05-04 13:10 | 39.42542 | 141.68344 | 31646 ft | 349 kts | 213° |
| 2026-05-04 13:11 | 39.38144 | 141.65690 | 31664 ft | 348 kts | 213° |
| 2026-05-04 13:11 | 39.33745 | 141.63038 | 31690 ft | 349 kts | 213° |
| 2026-05-04 13:12 | 39.29340 | 141.60385 | 31697 ft | 349 kts | 213° |
| 2026-05-04 13:12 | 39.24928 | 141.57734 | 31686 ft | 349 kts | 214° |
| 2026-05-04 13:13 | 39.20555 | 141.55109 | 31699 ft | 349 kts | 214° |
| 2026-05-04 13:13 | 39.16163 | 141.52477 | 31721 ft | 347 kts | 214° |
| 2026-05-04 13:14 | 39.11780 | 141.49854 | 31727 ft | 347 kts | 214° |
| 2026-05-04 13:14 | 39.07385 | 141.47225 | 31748 ft | 348 kts | 214° |
| 2026-05-04 13:15 | 39.02977 | 141.44592 | 31731 ft | 350 kts | 213° |
| 2026-05-04 13:15 | 38.98555 | 141.41956 | 31741 ft | 350 kts | 214° |
| 2026-05-04 13:16 | 38.94159 | 141.39339 | 31747 ft | 351 kts | 214° |
| 2026-05-04 13:16 | 38.89725 | 141.36704 | 31750 ft | 351 kts | 214° |
| 2026-05-04 13:17 | 38.85293 | 141.34072 | 31754 ft | 351 kts | 214° |
| 2026-05-04 13:17 | 38.80865 | 141.31448 | 31777 ft | 350 kts | 214° |
| 2026-05-04 13:18 | 38.76434 | 141.28825 | 31756 ft | 351 kts | 214° |
| 2026-05-04 13:18 | 38.71995 | 141.26198 | 31760 ft | 352 kts | 214° |
| 2026-05-04 13:19 | 38.67543 | 141.23571 | 31771 ft | 352 kts | 214° |
| 2026-05-04 13:19 | 38.63099 | 141.20950 | 31783 ft | 352 kts | 214° |
| 2026-05-04 13:20 | 38.58643 | 141.18326 | 31786 ft | 353 kts | 214° |
| 2026-05-04 13:20 | 38.54210 | 141.15720 | 31784 ft | 353 kts | 214° |
| 2026-05-04 13:21 | 38.49744 | 141.13097 | 31784 ft | 354 kts | 214° |
| 2026-05-04 13:21 | 38.45271 | 141.10474 | 31790 ft | 354 kts | 214° |
| 2026-05-04 13:22 | 38.40784 | 141.07846 | 31776 ft | 355 kts | 214° |
| 2026-05-04 13:22 | 38.36291 | 141.05218 | 31784 ft | 355 kts | 214° |
| 2026-05-04 13:23 | 38.31789 | 141.02588 | 31776 ft | 356 kts | 214° |
| 2026-05-04 13:23 | 38.27305 | 140.99973 | 31774 ft | 357 kts | 214° |
| 2026-05-04 13:24 | 38.22780 | 140.97337 | 31766 ft | 358 kts | 214° |
| 2026-05-04 13:24 | 38.18252 | 140.94702 | 31761 ft | 358 kts | 214° |
| 2026-05-04 13:25 | 38.11574 | 140.90518 | 31773 ft | 353 kts | 218° |
| 2026-05-04 13:25 | 38.07321 | 140.87377 | 31772 ft | 354 kts | 218° |
| 2026-05-04 13:26 | 38.03060 | 140.84230 | 31780 ft | 355 kts | 218° |
| 2026-05-04 13:26 | 37.98785 | 140.81089 | 31782 ft | 356 kts | 218° |
| 2026-05-04 13:27 | 37.94525 | 140.77969 | 31793 ft | 356 kts | 218° |
| 2026-05-04 13:27 | 37.90225 | 140.74825 | 31801 ft | 356 kts | 217° |
| 2026-05-04 13:28 | 37.85931 | 140.71690 | 31813 ft | 357 kts | 217° |
| 2026-05-04 13:28 | 37.81628 | 140.68551 | 31824 ft | 357 kts | 217° |
| 2026-05-04 13:29 | 37.77302 | 140.65406 | 31833 ft | 359 kts | 216° |
| 2026-05-04 13:29 | 37.72632 | 140.62943 | 31834 ft | 369 kts | 207° |
| 2026-05-04 13:30 | 37.67609 | 140.61448 | 31844 ft | 369 kts | 204° |
| 2026-05-04 13:30 | 37.62616 | 140.60039 | 31851 ft | 367 kts | 204° |
| 2026-05-04 13:31 | 37.57641 | 140.58620 | 31852 ft | 366 kts | 204° |
| 2026-05-04 13:31 | 37.52712 | 140.57207 | 31849 ft | 364 kts | 204° |
| 2026-05-04 13:32 | 37.47818 | 140.55807 | 31850 ft | 360 kts | 205° |
| 2026-05-04 13:32 | 37.42962 | 140.54413 | 31748 ft | 360 kts | 205° |
| 2026-05-04 13:33 | 37.40504 | 140.53708 | 31424 ft | 357 kts | 204° |
| 2026-05-04 13:33 | 37.38100 | 140.53025 | 31004 ft | 350 kts | 205° |
| 2026-05-04 13:33 | 37.35731 | 140.52350 | 30529 ft | 347 kts | 205° |
| 2026-05-04 13:33 | 37.33387 | 140.51680 | 30085 ft | 343 kts | 205° |
| 2026-05-04 13:34 | 37.31094 | 140.51023 | 29600 ft | 341 kts | 205° |
| 2026-05-04 13:34 | 37.28786 | 140.50363 | 29070 ft | 338 kts | 205° |
| 2026-05-04 13:34 | 37.26512 | 140.49717 | 28592 ft | 333 kts | 205° |
| 2026-05-04 13:34 | 37.24270 | 140.49079 | 28064 ft | 330 kts | 205° |
| 2026-05-04 13:35 | 37.22036 | 140.48441 | 27576 ft | 327 kts | 205° |
| 2026-05-04 13:35 | 37.17634 | 140.47190 | 26651 ft | 322 kts | 205° |
| 2026-05-04 13:35 | 37.15446 | 140.46568 | 26157 ft | 322 kts | 205° |
| 2026-05-04 13:36 | 37.13269 | 140.45951 | 25706 ft | 319 kts | 205° |
| 2026-05-04 13:36 | 37.11133 | 140.45350 | 25280 ft | 310 kts | 205° |
| 2026-05-04 13:36 | 37.09055 | 140.44766 | 24876 ft | 302 kts | 205° |
| 2026-05-04 13:36 | 37.07028 | 140.44193 | 24493 ft | 297 kts | 205° |
| 2026-05-04 13:37 | 37.04995 | 140.43610 | 24104 ft | 304 kts | 205° |
| 2026-05-04 13:37 | 37.02876 | 140.42992 | 23683 ft | 323 kts | 205° |
| 2026-05-04 13:37 | 37.00624 | 140.42343 | 23208 ft | 338 kts | 204° |
| 2026-05-04 13:37 | 36.99107 | 140.41918 | 22862 ft | 334 kts | 204° |
| 2026-05-04 13:38 | 36.96136 | 140.41100 | 22248 ft | 319 kts | 204° |
| 2026-05-04 13:38 | 36.94009 | 140.40509 | 21821 ft | 308 kts | 204° |
| 2026-05-04 13:38 | 36.91952 | 140.39930 | 21394 ft | 300 kts | 204° |
| 2026-05-04 13:38 | 36.89934 | 140.39360 | 20950 ft | 294 kts | 204° |
| 2026-05-04 13:39 | 36.87937 | 140.38794 | 20567 ft | 296 kts | 204° |
| 2026-05-04 13:39 | 36.85888 | 140.38204 | 20190 ft | 312 kts | 204° |
| 2026-05-04 13:39 | 36.83736 | 140.37584 | 19768 ft | 327 kts | 202° |
| 2026-05-04 13:39 | 36.81541 | 140.36973 | 19351 ft | 318 kts | 202° |
| 2026-05-04 13:40 | 36.79415 | 140.36388 | 18937 ft | 307 kts | 202° |
| 2026-05-04 13:40 | 36.77361 | 140.35818 | 18561 ft | 298 kts | 202° |
| 2026-05-04 13:40 | 36.75359 | 140.35257 | 18182 ft | 292 kts | 202° |
| 2026-05-04 13:40 | 36.73383 | 140.34746 | 17768 ft | 290 kts | 200° |
| 2026-05-04 13:41 | 36.71382 | 140.34336 | 17385 ft | 296 kts | 199° |
| 2026-05-04 13:41 | 36.69278 | 140.33919 | 17013 ft | 317 kts | 198° |
| 2026-05-04 13:41 | 36.67068 | 140.33482 | 16555 ft | 321 kts | 198° |
| 2026-05-04 13:42 | 36.62797 | 140.32651 | 15892 ft | 302 kts | 199° |
| 2026-05-04 13:42 | 36.60696 | 140.32228 | 15869 ft | 307 kts | 199° |
| 2026-05-04 13:42 | 36.58603 | 140.31809 | 15829 ft | 297 kts | 199° |
| 2026-05-04 13:42 | 36.56653 | 140.31427 | 15814 ft | 279 kts | 199° |
| 2026-05-04 13:43 | 36.54743 | 140.31048 | 15815 ft | 273 kts | 200° |
| 2026-05-04 13:43 | 36.52880 | 140.30667 | 15828 ft | 277 kts | 200° |
| 2026-05-04 13:43 | 36.50960 | 140.30274 | 15833 ft | 282 kts | 200° |
| 2026-05-04 13:43 | 36.49027 | 140.29884 | 15813 ft | 281 kts | 199° |
| 2026-05-04 13:44 | 36.47099 | 140.29499 | 15819 ft | 280 kts | 199° |
| 2026-05-04 13:44 | 36.45154 | 140.29110 | 15787 ft | 278 kts | 200° |
| 2026-05-04 13:44 | 36.43284 | 140.28739 | 15480 ft | 275 kts | 200° |
| 2026-05-04 13:44 | 36.41393 | 140.28361 | 14945 ft | 275 kts | 199° |
| 2026-05-04 13:45 | 36.39491 | 140.27977 | 14313 ft | 279 kts | 199° |
| 2026-05-04 13:45 | 36.37572 | 140.27592 | 13753 ft | 280 kts | 199° |
| 2026-05-04 13:45 | 36.35698 | 140.27225 | 13682 ft | 266 kts | 199° |
| 2026-05-04 13:45 | 36.33856 | 140.26858 | 13529 ft | 273 kts | 199° |
| 2026-05-04 13:46 | 36.31945 | 140.26469 | 13374 ft | 283 kts | 198° |
| 2026-05-04 13:46 | 36.30001 | 140.26080 | 13219 ft | 283 kts | 198° |
| 2026-05-04 13:46 | 36.28064 | 140.25697 | 13045 ft | 281 kts | 198° |
| 2026-05-04 13:46 | 36.26132 | 140.25314 | 12890 ft | 281 kts | 198° |
| 2026-05-04 13:47 | 36.24195 | 140.24929 | 12714 ft | 282 kts | 198° |
| 2026-05-04 13:47 | 36.22261 | 140.24544 | 12565 ft | 282 kts | 197° |
| 2026-05-04 13:47 | 36.20322 | 140.24159 | 12405 ft | 282 kts | 197° |
| 2026-05-04 13:47 | 36.18400 | 140.23777 | 12249 ft | 282 kts | 197° |
| 2026-05-04 13:48 | 36.16458 | 140.23392 | 12091 ft | 282 kts | 197° |
| 2026-05-04 13:48 | 36.14520 | 140.23007 | 11935 ft | 282 kts | 197° |
| 2026-05-04 13:48 | 36.12584 | 140.22623 | 11784 ft | 282 kts | 197° |
| 2026-05-04 13:48 | 36.10652 | 140.22240 | 11626 ft | 281 kts | 197° |
| 2026-05-04 13:49 | 36.08718 | 140.21857 | 11471 ft | 281 kts | 196° |
| 2026-05-04 13:49 | 36.06786 | 140.21474 | 11318 ft | 280 kts | 196° |
| 2026-05-04 13:49 | 36.04873 | 140.21096 | 11146 ft | 278 kts | 196° |
| 2026-05-04 13:49 | 36.02937 | 140.20711 | 10931 ft | 280 kts | 195° |
| 2026-05-04 13:50 | 36.01023 | 140.20361 | 10689 ft | 275 kts | 193° |
| 2026-05-04 13:50 | 35.99147 | 140.20089 | 10477 ft | 269 kts | 193° |
| 2026-05-04 13:50 | 35.97302 | 140.19838 | 10241 ft | 264 kts | 192° |
| 2026-05-04 13:50 | 35.95485 | 140.19592 | 9995 ft | 261 kts | 192° |
| 2026-05-04 13:51 | 35.93685 | 140.19345 | 9756 ft | 260 kts | 192° |
| 2026-05-04 13:51 | 35.91879 | 140.19094 | 9511 ft | 263 kts | 191° |
| 2026-05-04 13:51 | 35.90049 | 140.18837 | 9253 ft | 267 kts | 191° |
| 2026-05-04 13:51 | 35.88196 | 140.18578 | 8992 ft | 267 kts | 191° |
| 2026-05-04 13:52 | 35.84552 | 140.18067 | 8665 ft | 265 kts | 191° |
| 2026-05-04 13:52 | 35.82716 | 140.17808 | 8543 ft | 267 kts | 191° |
| 2026-05-04 13:52 | 35.81656 | 140.17658 | 8470 ft | 267 kts | 191° |
| 2026-05-04 13:53 | 35.79202 | 140.17312 | 8317 ft | 268 kts | 191° |
| 2026-05-04 13:53 | 35.77352 | 140.17052 | 8193 ft | 268 kts | 191° |
| 2026-05-04 13:53 | 35.76099 | 140.16875 | 8113 ft | 268 kts | 191° |
| 2026-05-04 13:54 | 35.72423 | 140.16358 | 7973 ft | 267 kts | 191° |
| 2026-05-04 13:54 | 35.70562 | 140.16095 | 7798 ft | 271 kts | 191° |
| 2026-05-04 13:54 | 35.66860 | 140.15575 | 7551 ft | 268 kts | 191° |
| 2026-05-04 13:55 | 35.65004 | 140.15313 | 7437 ft | 268 kts | 191° |
| 2026-05-04 13:55 | 35.61286 | 140.14790 | 7208 ft | 270 kts | 191° |
| 2026-05-04 13:55 | 35.59423 | 140.14528 | 7089 ft | 270 kts | 191° |
| 2026-05-04 13:56 | 35.57551 | 140.14265 | 6978 ft | 271 kts | 191° |
| 2026-05-04 13:56 | 35.55677 | 140.14002 | 6858 ft | 271 kts | 191° |
| 2026-05-04 13:56 | 35.51949 | 140.13481 | 6519 ft | 265 kts | 191° |
| 2026-05-04 13:57 | 35.50121 | 140.13225 | 6087 ft | 265 kts | 191° |
| 2026-05-04 13:57 | 35.48278 | 140.12965 | 5569 ft | 267 kts | 191° |
| 2026-05-04 13:58 | 35.43000 | 140.11322 | 4156 ft | 254 kts | 237° |
| 2026-05-04 13:58 | 35.41578 | 140.07688 | 3985 ft | 225 kts | 256° |
| 2026-05-04 13:58 | 35.41066 | 140.05937 | 3986 ft | 217 kts | 257° |
| 2026-05-04 13:59 | 35.40559 | 140.04200 | 3979 ft | 216 kts | 256° |
| 2026-05-04 13:59 | 35.40049 | 140.02480 | 4009 ft | 214 kts | 256° |
| 2026-05-04 13:59 | 35.39007 | 139.99025 | 3985 ft | 214 kts | 256° |
| 2026-05-04 14:00 | 35.38497 | 139.97358 | 3971 ft | 203 kts | 256° |
| 2026-05-04 14:00 | 35.37616 | 139.94158 | 3793 ft | 198 kts | 275° |
| 2026-05-04 14:00 | 35.38076 | 139.92751 | 3676 ft | 176 kts | 316° |
| 2026-05-04 14:01 | 35.38962 | 139.91773 | 3456 ft | 168 kts | 321° |
| 2026-05-04 14:01 | 35.39874 | 139.90893 | 3248 ft | 162 kts | 323° |
| 2026-05-04 14:01 | 35.41639 | 139.89356 | 2839 ft | 152 kts | 329° |
| 2026-05-04 14:02 | 35.42529 | 139.88692 | 2639 ft | 147 kts | 329° |
| 2026-05-04 14:02 | 35.43406 | 139.88056 | 2476 ft | 143 kts | 330° |
| 2026-05-04 14:02 | 35.44230 | 139.87465 | 2276 ft | 132 kts | 330° |
| 2026-05-04 14:02 | 35.45012 | 139.86908 | 2111 ft | 130 kts | 331° |
| 2026-05-04 14:03 | 35.45796 | 139.86352 | 1968 ft | 132 kts | 332° |
| 2026-05-04 14:03 | 35.46599 | 139.85781 | 1762 ft | 132 kts | 331° |
| 2026-05-04 14:03 | 35.47382 | 139.85221 | 1594 ft | 127 kts | 332° |
| 2026-05-04 14:03 | 35.48136 | 139.84683 | 1311 ft | 126 kts | 332° |
| 2026-05-04 14:04 | 35.49682 | 139.83572 | 994 ft | 129 kts | 332° |
| 2026-05-04 14:04 | 35.50460 | 139.83016 | 869 ft | 134 kts | 331° |
| 2026-05-04 14:04 | 35.51275 | 139.82437 | 726 ft | 135 kts | 333° |
| 2026-05-04 14:05 | 35.52904 | 139.81275 | 367 ft | 133 kts | 332° |
| 2026-05-04 14:05 | 35.53702 | 139.80707 | 168 ft | 132 kts | 331° |
| 2026-05-04 14:05 | 35.54495 | 139.80141 | 33 ft | 135 kts | 331° |
| 2026-05-04 14:06 | 35.55180 | 139.79653 | 27 ft | 84 kts | 330° |
| 2026-05-04 14:06 | 35.55501 | 139.79424 | 30 ft | 32 kts | 329° |
| 2026-05-04 14:06 | 35.55675 | 139.79282 | 27 ft | 29 kts | 317° |
| 2026-05-04 14:06 | 35.55784 | 139.79118 | 25 ft | 12 kts | 299° |
| 2026-05-04 14:07 | 35.55788 | 139.79027 | 27 ft | 11 kts | 231° |
| 2026-05-04 14:07 | 35.55717 | 139.79019 | 27 ft | 11 kts | 155° |
| 2026-05-04 14:07 | 35.55652 | 139.79065 | 27 ft | 11 kts | 150° |
| 2026-05-04 14:07 | 35.55589 | 139.79110 | 30 ft | 10 kts | 149° |
| 2026-05-04 14:08 | 35.55534 | 139.79150 | 28 ft | 10 kts | 149° |
| 2026-05-04 14:08 | 35.55470 | 139.79196 | 27 ft | 12 kts | 150° |
| 2026-05-04 14:08 | 35.55384 | 139.79256 | 28 ft | 16 kts | 150° |
| 2026-05-04 14:08 | 35.55276 | 139.79332 | 28 ft | 18 kts | 148° |
| 2026-05-04 14:09 | 35.55065 | 139.79483 | 27 ft | 17 kts | 150° |
| 2026-05-04 14:09 | 35.54965 | 139.79554 | 26 ft | 16 kts | 149° |
| 2026-05-04 14:10 | 35.54784 | 139.79682 | 27 ft | 10 kts | 150° |
| 2026-05-04 14:10 | 35.54721 | 139.79675 | 24 ft | 10 kts | 226° |
| 2026-05-04 14:10 | 35.54683 | 139.79598 | 23 ft | 11 kts | 240° |
| 2026-05-04 14:10 | 35.54639 | 139.79506 | 23 ft | 14 kts | 239° |
| 2026-05-04 14:11 | 35.54585 | 139.79393 | 27 ft | 16 kts | 240° |
| 2026-05-04 14:11 | 35.54479 | 139.79168 | 35 ft | 15 kts | 239° |
| 2026-05-04 14:11 | 35.54426 | 139.79058 | 35 ft | 16 kts | 240° |
| 2026-05-04 14:12 | 35.54365 | 139.78928 | 33 ft | 20 kts | 240° |
| 2026-05-04 14:12 | 35.54290 | 139.78770 | 29 ft | 22 kts | 240° |
| 2026-05-04 14:12 | 35.54219 | 139.78563 | 22 ft | 11 kts | 299° |
| 2026-05-04 14:13 | 35.54277 | 139.78511 | 27 ft | 10 kts | 330° |
| 2026-05-04 14:13 | 35.54339 | 139.78469 | 24 ft | 10 kts | 330° |
| 2026-05-04 14:13 | 35.54398 | 139.78427 | 23 ft | 10 kts | 329° |
| 2026-05-04 14:13 | 35.54457 | 139.78384 | 23 ft | 10 kts | 330° |
| 2026-05-04 14:14 | 35.54518 | 139.78341 | 23 ft | 10 kts | 330° |
| 2026-05-04 14:14 | 35.54615 | 139.78351 | 22 ft | 8 kts | 59° |
| 2026-05-04 14:14 | 35.54643 | 139.78412 | 23 ft | 8 kts | 60° |
| 2026-05-04 14:15 | 35.54659 | 139.78446 | 22 ft | 0 kts | 60° |